createdAt,value
2018-10-16T00:00:15.631Z,9.37
2018-10-16T00:02:44.945Z,9.63
2018-10-16T00:05:13.642Z,9.63
2018-10-16T00:07:42.422Z,10.30
2018-10-16T00:10:11.066Z,9.60
2018-10-16T00:12:39.825Z,10.07
2018-10-16T00:15:09.863Z,9.70
2018-10-16T00:17:38.731Z,9.30
2018-10-16T00:20:07.559Z,9.93
2018-10-16T00:22:36.291Z,9.27
2018-10-16T00:25:05.479Z,9.87
2018-10-16T00:27:34.374Z,9.83
2018-10-16T00:30:03.099Z,9.77
2018-10-16T00:32:31.813Z,9.47
2018-10-16T00:35:00.443Z,9.70
2018-10-16T00:37:29.202Z,9.83
2018-10-16T00:39:57.830Z,9.80
2018-10-16T00:42:26.589Z,9.23
2018-10-16T00:44:55.345Z,9.10
2018-10-16T00:47:24.067Z,9.60
2018-10-16T00:49:52.801Z,9.57
2018-10-16T00:52:21.470Z,8.97
2018-10-16T00:54:50.134Z,9.30
2018-10-16T00:57:18.945Z,9.17
2018-10-16T00:59:47.694Z,8.93
2018-10-16T01:02:16.470Z,9.00
2018-10-16T01:04:45.180Z,9.00
2018-10-16T01:07:13.911Z,8.77
2018-10-16T01:09:42.551Z,8.57
2018-10-16T01:12:11.252Z,8.80
2018-10-16T01:14:39.974Z,8.80
2018-10-16T01:17:18.131Z,8.63
2018-10-16T01:19:46.798Z,8.90
2018-10-16T01:22:15.467Z,8.90
2018-10-16T01:24:58.919Z,9.30
2018-10-16T01:27:27.804Z,8.97
2018-10-16T01:29:56.565Z,9.23
2018-10-16T01:32:25.226Z,9.00
2018-10-16T01:34:53.899Z,8.87
2018-10-16T01:37:22.594Z,9.03
2018-10-16T01:39:51.356Z,9.27
2018-10-16T01:42:20.019Z,8.27
2018-10-16T01:44:48.906Z,8.73
2018-10-16T01:47:17.697Z,8.70
2018-10-16T01:49:46.421Z,8.30
2018-10-16T01:52:15.090Z,9.20
2018-10-16T01:54:43.746Z,8.60
2018-10-16T01:57:12.610Z,8.13
2018-10-16T01:59:41.243Z,8.33
2018-10-16T02:02:09.995Z,9.13
2018-10-16T02:04:38.683Z,8.70
2018-10-16T02:07:07.612Z,8.67
2018-10-16T02:09:36.314Z,8.20
2018-10-16T02:12:05.067Z,8.07
2018-10-16T02:14:33.715Z,8.73
2018-10-16T02:17:02.689Z,8.33
2018-10-16T02:19:31.261Z,8.50
2018-10-16T02:21:59.949Z,8.37
2018-10-16T02:24:28.638Z,8.57
2018-10-16T02:26:57.324Z,8.97
2018-10-16T02:29:25.990Z,8.43
2018-10-16T02:31:54.955Z,8.57
2018-10-16T02:34:23.634Z,8.67
2018-10-16T02:36:52.329Z,9.27
2018-10-16T02:39:20.951Z,8.87
2018-10-16T02:41:49.667Z,8.60
2018-10-16T02:44:18.335Z,8.73
2018-10-16T02:46:47.198Z,9.30
2018-10-16T02:49:15.886Z,8.53
2018-10-16T02:51:44.573Z,8.37
2018-10-16T02:54:13.359Z,9.60
2018-10-16T02:56:42.284Z,8.80
2018-10-16T02:59:11.024Z,8.97
2018-10-16T03:01:39.759Z,8.97
2018-10-16T03:04:08.476Z,9.03
2018-10-16T03:06:37.254Z,9.20
2018-10-16T03:09:07.970Z,8.57
2018-10-16T03:11:36.648Z,9.07
2018-10-16T03:14:05.296Z,9.50
2018-10-16T03:16:33.962Z,8.50
2018-10-16T03:19:02.666Z,8.40
2018-10-16T03:21:31.506Z,9.07
2018-10-16T03:24:00.125Z,9.27
2018-10-16T03:26:28.821Z,8.83
2018-10-16T03:28:57.510Z,8.77
2018-10-16T03:31:26.374Z,8.60
2018-10-16T03:33:55.051Z,8.77
2018-10-16T03:36:24.003Z,9.37
2018-10-16T03:38:52.730Z,9.00
2018-10-16T03:41:21.451Z,9.47
2018-10-16T03:43:59.046Z,8.43
2018-10-16T03:46:28.155Z,8.40
2018-10-16T03:48:56.893Z,8.73
2018-10-16T03:51:25.807Z,8.77
2018-10-16T03:53:55.923Z,8.40
2018-10-16T03:56:25.362Z,8.53
2018-10-16T03:58:54.055Z,8.47
2018-10-16T04:01:23.773Z,8.67
2018-10-16T04:03:52.598Z,8.50
2018-10-16T04:06:30.534Z,7.77
2018-10-16T04:08:59.263Z,8.53
2018-10-16T04:11:27.987Z,8.23
2018-10-16T04:13:56.743Z,8.20
2018-10-16T04:16:25.462Z,8.20
2018-10-16T04:18:54.155Z,7.83
2018-10-16T04:21:22.958Z,8.20
2018-10-16T04:23:51.718Z,9.23
2018-10-16T04:26:20.800Z,7.83
2018-10-16T04:28:49.568Z,7.57
2018-10-16T04:31:18.323Z,8.53
2018-10-16T04:33:47.143Z,7.53
2018-10-16T04:36:16.187Z,7.77
2018-10-16T04:38:44.913Z,7.93
2018-10-16T04:41:13.652Z,8.20
2018-10-16T04:43:42.521Z,8.23
2018-10-16T04:46:11.456Z,8.07
2018-10-16T04:48:40.190Z,7.77
2018-10-16T04:51:08.847Z,7.57
2018-10-16T04:53:37.566Z,8.17
2018-10-16T04:56:11.262Z,7.53
2018-10-16T04:58:40.122Z,7.03
2018-10-16T05:01:08.978Z,8.10
2018-10-16T05:03:37.699Z,7.50
2018-10-16T05:06:06.424Z,8.07
2018-10-16T05:08:35.140Z,7.80
2018-10-16T05:11:03.814Z,7.83
2018-10-16T05:13:32.482Z,7.83
2018-10-16T05:16:01.210Z,7.40
2018-10-16T05:18:29.954Z,7.90
2018-10-16T05:20:58.966Z,7.83
2018-10-16T05:23:27.878Z,7.30
2018-10-16T05:25:56.603Z,7.30
2018-10-16T05:28:25.337Z,7.53
2018-10-16T05:30:54.164Z,8.00
2018-10-16T05:33:22.814Z,7.23
2018-10-16T05:35:51.615Z,7.53
2018-10-16T05:38:20.357Z,7.63
2018-10-16T05:40:49.085Z,7.07
2018-10-16T05:43:17.978Z,7.97
2018-10-16T05:45:47.335Z,7.67
2018-10-16T05:48:16.099Z,8.10
2018-10-16T05:50:45.054Z,7.53
2018-10-16T05:53:13.800Z,7.10
2018-10-16T05:55:42.615Z,7.50
2018-10-16T05:58:11.442Z,7.00
2018-10-16T06:00:43.000Z,7.57
2018-10-16T06:03:11.786Z,7.90
2018-10-16T06:05:40.571Z,8.40
2018-10-16T06:08:09.572Z,7.93
2018-10-16T06:10:38.459Z,7.53
2018-10-16T06:13:07.246Z,6.97
2018-10-16T06:15:35.982Z,7.87
2018-10-16T06:18:04.998Z,7.20
2018-10-16T06:20:33.796Z,7.77
2018-10-16T06:23:02.491Z,7.80
2018-10-16T06:25:31.423Z,7.07
2018-10-16T06:28:04.885Z,7.20
2018-10-16T06:30:33.653Z,7.63
2018-10-16T06:33:02.534Z,7.33
2018-10-16T06:35:31.430Z,6.97
2018-10-16T06:38:00.143Z,7.20
2018-10-16T06:40:29.080Z,7.37
2018-10-16T06:42:57.762Z,7.30
2018-10-16T06:45:26.503Z,7.20
2018-10-16T06:47:55.350Z,7.63
2018-10-16T06:50:24.133Z,6.43
2018-10-16T06:52:52.886Z,7.03
2018-10-16T06:55:21.739Z,7.30
2018-10-16T06:57:55.613Z,6.90
2018-10-16T07:00:24.484Z,7.00
2018-10-16T07:02:53.287Z,7.33
2018-10-16T07:05:22.098Z,7.17
2018-10-16T07:07:50.794Z,7.60
2018-10-16T07:10:19.598Z,7.00
2018-10-16T07:12:48.278Z,7.17
2018-10-16T07:15:17.007Z,7.33
2018-10-16T07:17:45.790Z,7.03
2018-10-16T07:20:15.048Z,7.20
2018-10-16T07:22:43.806Z,7.20
2018-10-16T07:25:12.617Z,7.33
2018-10-16T07:27:41.566Z,7.70
2018-10-16T07:30:12.725Z,6.97
2018-10-16T07:32:41.430Z,7.13
2018-10-16T07:35:10.572Z,7.10
2018-10-16T07:37:40.143Z,6.60
2018-10-16T07:40:09.891Z,7.57
2018-10-16T07:42:38.764Z,7.93
2018-10-16T07:45:07.924Z,7.63
2018-10-16T07:47:36.965Z,6.57
2018-10-16T07:50:08.643Z,7.37
2018-10-16T07:52:37.403Z,6.90
2018-10-16T07:55:08.090Z,6.60
2018-10-16T07:57:36.817Z,6.87
2018-10-16T08:00:06.567Z,6.40
2018-10-16T08:02:35.527Z,6.40
2018-10-16T08:05:04.312Z,6.90
2018-10-16T08:07:32.999Z,6.63
2018-10-16T08:10:01.750Z,6.80
2018-10-16T08:12:30.475Z,7.40
2018-10-16T08:14:59.284Z,7.10
2018-10-16T08:17:38.014Z,7.00
2018-10-16T08:20:06.782Z,7.07
2018-10-16T08:22:35.477Z,6.70
2018-10-16T08:25:04.406Z,7.47
2018-10-16T08:27:33.253Z,6.97
2018-10-16T08:30:01.996Z,6.73
2018-10-16T08:32:30.646Z,6.20
2018-10-16T08:34:59.342Z,6.77
2018-10-16T08:39:47.732Z,7.70
2018-10-16T08:42:59.843Z,7.60
2018-10-16T08:45:39.642Z,7.13
2018-10-16T08:50:20.863Z,8.27
2018-10-16T08:52:49.512Z,9.30
2018-10-16T08:55:18.210Z,8.67
2018-10-16T08:57:46.915Z,8.90
2018-10-16T09:00:15.594Z,8.67
2018-10-16T09:02:44.938Z,8.40
2018-10-16T09:05:13.637Z,8.40
2018-10-16T09:07:42.761Z,8.17
2018-10-16T09:10:11.510Z,8.13
2018-10-16T09:12:40.531Z,8.30
2018-10-16T09:15:09.315Z,8.10
2018-10-16T09:17:38.089Z,8.20
2018-10-16T09:20:07.299Z,7.83
2018-10-16T09:22:36.055Z,9.30
2018-10-16T09:25:05.486Z,7.87
2018-10-16T09:27:34.255Z,8.10
2018-10-16T09:30:03.052Z,8.47
2018-10-16T09:32:31.850Z,8.20
2018-10-16T09:35:00.627Z,8.53
2018-10-16T09:37:29.475Z,8.27
2018-10-16T09:39:58.206Z,8.10
2018-10-16T09:42:27.001Z,9.13
2018-10-16T09:44:56.634Z,8.07
2018-10-16T09:47:25.491Z,7.80
2018-10-16T09:49:54.227Z,7.60
2018-10-16T09:52:23.015Z,7.67
2018-10-16T09:54:51.733Z,7.80
2018-10-16T09:57:29.838Z,7.43
2018-10-16T09:59:58.587Z,7.13
2018-10-16T10:02:27.317Z,7.27
2018-10-16T10:04:56.243Z,7.57
2018-10-16T10:07:25.055Z,7.63
2018-10-16T10:09:53.673Z,7.17
2018-10-16T10:12:22.408Z,7.30
2018-10-16T10:14:51.246Z,7.63
2018-10-16T10:17:20.088Z,7.93
2018-10-16T10:19:48.878Z,7.80
2018-10-16T10:22:17.561Z,8.47
2018-10-16T10:24:46.235Z,7.60
2018-10-16T10:27:15.027Z,7.87
2018-10-16T10:29:43.707Z,7.00
2018-10-16T10:32:12.310Z,7.70
2018-10-16T10:34:40.975Z,7.23
2018-10-16T10:37:09.827Z,7.27
2018-10-16T10:39:38.507Z,8.53
2018-10-16T10:42:07.218Z,7.30
2018-10-16T10:44:35.954Z,7.70
2018-10-16T11:04:36.770Z,6.87
2018-10-16T11:24:30.213Z,7.07
2018-10-16T11:44:21.341Z,8.10
2018-10-16T12:04:13.781Z,7.43
2018-10-16T12:24:06.447Z,7.97
2018-10-16T12:44:02.267Z,8.97
2018-10-16T13:03:54.821Z,7.80
2018-10-16T13:23:46.791Z,7.00
2018-10-16T13:26:23.732Z,7.70
2018-10-16T13:28:59.828Z,8.00
2018-10-16T13:31:41.692Z,7.50
2018-10-16T13:34:22.052Z,7.80
2018-10-16T13:54:15.215Z,7.70
2018-10-16T14:14:08.713Z,7.90
2018-10-16T14:34:05.259Z,7.80
2018-10-16T14:53:59.325Z,7.90
2018-10-16T15:13:54.090Z,8.00
2018-10-16T15:16:33.183Z,8.23
2018-10-16T15:19:10.447Z,8.33
2018-10-16T15:21:48.035Z,8.20
2018-10-16T15:24:25.687Z,8.60
2018-10-16T15:44:17.875Z,8.70
2018-10-16T16:04:14.423Z,8.60
2018-10-16T16:24:09.636Z,8.23
2018-10-16T16:26:48.253Z,10.63
2018-10-16T16:29:23.697Z,8.63
2018-10-16T16:31:59.475Z,8.00
2018-10-16T16:34:35.506Z,8.07
2018-10-16T16:54:29.289Z,9.27
2018-10-16T17:14:23.995Z,9.57
2018-10-16T17:34:17.468Z,8.60
2018-10-16T17:54:14.541Z,8.63
2018-10-16T18:14:09.637Z,8.33
2018-10-16T18:34:05.266Z,8.87
2018-10-16T18:36:40.404Z,9.33
2018-10-16T18:39:17.749Z,9.03
2018-10-16T18:41:54.080Z,9.20
2018-10-16T18:44:32.880Z,8.67
2018-10-16T19:04:31.959Z,9.27
2018-10-16T19:24:27.506Z,9.60
2018-10-16T19:44:24.053Z,9.03
2018-10-16T20:04:14.766Z,10.33
2018-10-16T20:24:08.554Z,9.67
2018-10-16T20:26:51.670Z,9.77
2018-10-16T20:29:31.222Z,9.80
2018-10-16T20:32:07.165Z,10.30
2018-10-16T20:34:43.841Z,10.40
2018-10-16T20:54:40.169Z,9.47
2018-10-16T21:14:34.473Z,9.93
2018-10-16T21:34:30.418Z,11.10
2018-10-16T21:54:22.963Z,10.97
2018-10-16T22:14:18.583Z,10.40
2018-10-16T22:34:13.285Z,11.00
2018-10-16T22:36:49.829Z,10.73
2018-10-16T22:39:25.895Z,10.33
2018-10-16T22:42:05.457Z,10.27
2018-10-16T22:44:41.824Z,11.00
2018-10-16T23:04:33.704Z,10.97
2018-10-16T23:24:25.345Z,10.40
2018-10-16T23:27:02.984Z,10.30
2018-10-16T23:29:39.045Z,9.63
2018-10-16T23:32:18.608Z,10.30
2018-10-16T23:34:54.240Z,9.90
2018-10-16T23:54:45.255Z,9.73
